sensor_id;sensor_type;location;lat;lon;timestamp;pressure;altitude;pressure_sealevel;temperature;humidity
25430;BME280;13360;48.152;-1.788;2022-12-13T00:01:17;100160.91;;;3.50;100.00
25430;BME280;13360;48.152;-1.788;2022-12-13T00:03:43;100155.44;;;3.45;100.00
25430;BME280;13360;48.152;-1.788;2022-12-13T00:06:10;100145.75;;;3.27;100.00
25430;BME280;13360;48.152;-1.788;2022-12-13T00:08:36;100177.69;;;3.26;100.00
25430;BME280;13360;48.152;-1.788;2022-12-13T00:11:03;100183.25;;;3.36;100.00
25430;BME280;13360;48.152;-1.788;2022-12-13T00:13:29;100171.38;;;3.21;100.00
25430;BME280;13360;48.152;-1.788;2022-12-13T00:15:59;100189.16;;;3.28;100.00
25430;BME280;13360;48.152;-1.788;2022-12-13T00:18:25;100182.34;;;3.26;100.00
25430;BME280;13360;48.152;-1.788;2022-12-13T00:20:51;100204.25;;;3.36;100.00
25430;BME280;13360;48.152;-1.788;2022-12-13T00:23:16;100138.91;;;3.19;100.00
25430;BME280;13360;48.152;-1.788;2022-12-13T00:25:42;100161.78;;;3.13;100.00
25430;BME280;13360;48.152;-1.788;2022-12-13T00:28:07;100189.06;;;3.13;100.00
25430;BME280;13360;48.152;-1.788;2022-12-13T00:30:33;100200.03;;;3.18;100.00
25430;BME280;13360;48.152;-1.788;2022-12-13T00:32:59;100176.41;;;3.02;100.00
25430;BME280;13360;48.152;-1.788;2022-12-13T00:35:24;100211.22;;;3.17;100.00
25430;BME280;13360;48.152;-1.788;2022-12-13T00:37:49;100216.66;;;3.17;100.00
25430;BME280;13360;48.152;-1.788;2022-12-13T00:40:15;100170.91;;;2.92;100.00
25430;BME280;13360;48.152;-1.788;2022-12-13T00:42:40;100241.16;;;3.12;100.00
25430;BME280;13360;48.152;-1.788;2022-12-13T00:45:06;100240.13;;;3.18;100.00
25430;BME280;13360;48.152;-1.788;2022-12-13T00:47:31;100245.06;;;3.21;100.00
25430;BME280;13360;48.152;-1.788;2022-12-13T00:49:56;100261.03;;;3.34;100.00
25430;BME280;13360;48.152;-1.788;2022-12-13T00:52:22;100219.97;;;3.24;100.00
25430;BME280;13360;48.152;-1.788;2022-12-13T00:54:47;100209.06;;;3.24;100.00
25430;BME280;13360;48.152;-1.788;2022-12-13T00:57:12;100237.06;;;3.41;100.00
25430;BME280;13360;48.152;-1.788;2022-12-13T00:59:38;100204.75;;;3.33;100.00
25430;BME280;13360;48.152;-1.788;2022-12-13T01:02:03;100173.31;;;3.25;100.00
25430;BME280;13360;48.152;-1.788;2022-12-13T01:04:28;100174.91;;;3.16;100.00
25430;BME280;13360;48.152;-1.788;2022-12-13T01:06:54;100208.56;;;3.32;100.00
25430;BME280;13360;48.152;-1.788;2022-12-13T01:09:22;100211.38;;;3.37;100.00
25430;BME280;13360;48.152;-1.788;2022-12-13T01:11:49;100200.72;;;3.35;100.00
25430;BME280;13360;48.152;-1.788;2022-12-13T01:14:15;100209.78;;;3.46;100.00
25430;BME280;13360;48.152;-1.788;2022-12-13T01:16:41;100186.25;;;3.40;100.00
25430;BME280;13360;48.152;-1.788;2022-12-13T01:19:06;100158.41;;;3.38;100.00
25430;BME280;13360;48.152;-1.788;2022-12-13T01:21:32;100142.78;;;3.28;100.00
25430;BME280;13360;48.152;-1.788;2022-12-13T01:24:01;100165.38;;;3.19;100.00
25430;BME280;13360;48.152;-1.788;2022-12-13T01:26:28;100159.63;;;3.15;100.00
25430;BME280;13360;48.152;-1.788;2022-12-13T01:28:53;100169.19;;;3.18;100.00
25430;BME280;13360;48.152;-1.788;2022-12-13T01:31:19;100144.28;;;3.09;100.00
25430;BME280;13360;48.152;-1.788;2022-12-13T01:33:45;100153.53;;;3.08;100.00
25430;BME280;13360;48.152;-1.788;2022-12-13T01:36:16;100142.59;;;3.03;100.00
25430;BME280;13360;48.152;-1.788;2022-12-13T01:38:42;100182.28;;;3.16;100.00
25430;BME280;13360;48.152;-1.788;2022-12-13T01:41:16;100172.75;;;3.23;100.00
25430;BME280;13360;48.152;-1.788;2022-12-13T01:46:08;100140.72;;;3.09;100.00
25430;BME280;13360;48.152;-1.788;2022-12-13T01:48:38;100149.19;;;3.12;100.00
25430;BME280;13360;48.152;-1.788;2022-12-13T01:51:06;100165.38;;;3.19;100.00
25430;BME280;13360;48.152;-1.788;2022-12-13T01:53:36;100149.19;;;3.12;100.00
25430;BME280;13360;48.152;-1.788;2022-12-13T01:56:10;100169.22;;;3.23;100.00
25430;BME280;13360;48.152;-1.788;2022-12-13T01:58:39;100174.66;;;3.23;100.00
25430;BME280;13360;48.152;-1.788;2022-12-13T02:01:05;100159.00;;;3.08;100.00
25430;BME280;13360;48.152;-1.788;2022-12-13T02:03:32;100156.47;;;2.96;100.00
25430;BME280;13360;48.152;-1.788;2022-12-13T02:06:03;100163.75;;;2.91;100.00
25430;BME280;13360;48.152;-1.788;2022-12-13T02:08:29;100192.72;;;2.92;100.00
25430;BME280;13360;48.152;-1.788;2022-12-13T02:10:56;100201.13;;;2.90;100.00
25430;BME280;13360;48.152;-1.788;2022-12-13T02:13:22;100175.97;;;2.83;100.00
25430;BME280;13360;48.152;-1.788;2022-12-13T02:31:35;100240.41;;;3.16;100.00
25430;BME280;13360;48.152;-1.788;2022-12-13T02:34:13;100243.16;;;3.21;100.00
25430;BME280;13360;48.152;-1.788;2022-12-13T02:37:22;100228.69;;;3.21;100.00
25430;BME280;13360;48.152;-1.788;2022-12-13T02:39:47;100213.88;;;3.12;100.00
25430;BME280;13360;48.152;-1.788;2022-12-13T02:42:19;100188.16;;;3.02;100.00
25430;BME280;13360;48.152;-1.788;2022-12-13T02:44:54;100196.63;;;3.06;100.00
25430;BME280;13360;48.152;-1.788;2022-12-13T02:47:23;100188.97;;;3.03;100.00
25430;BME280;13360;48.152;-1.788;2022-12-13T02:49:58;100189.75;;;2.98;100.00
25430;BME280;13360;48.152;-1.788;2022-12-13T02:52:28;100224.03;;;3.16;100.00
25430;BME280;13360;48.152;-1.788;2022-12-13T02:54:55;100242.38;;;3.26;100.00
25430;BME280;13360;48.152;-1.788;2022-12-13T02:57:41;100237.22;;;3.29;100.00
25430;BME280;13360;48.152;-1.788;2022-12-13T03:00:22;100220.53;;;3.26;100.00
25430;BME280;13360;48.152;-1.788;2022-12-13T03:02:55;100212.91;;;3.28;100.00
25430;BME280;13360;48.152;-1.788;2022-12-13T03:05:45;100164.69;;;3.01;100.00
25430;BME280;13360;48.152;-1.788;2022-12-13T03:11:21;100163.47;;;2.87;100.00
25430;BME280;13360;48.152;-1.788;2022-12-13T03:13:52;100140.19;;;2.74;100.00
25430;BME280;13360;48.152;-1.788;2022-12-13T03:16:28;100173.75;;;2.75;100.00
25430;BME280;13360;48.152;-1.788;2022-12-13T03:19:00;100181.41;;;2.78;100.00
25430;BME280;13360;48.152;-1.788;2022-12-13T03:21:26;100168.75;;;2.67;100.00
25430;BME280;13360;48.152;-1.788;2022-12-13T03:23:52;100207.09;;;2.87;100.00
25430;BME280;13360;48.152;-1.788;2022-12-13T03:26:23;100217.09;;;3.03;100.00
25430;BME280;13360;48.152;-1.788;2022-12-13T03:28:50;100153.59;;;2.81;100.00
25430;BME280;13360;48.152;-1.788;2022-12-13T03:31:16;100187.03;;;2.98;100.00
25430;BME280;13360;48.152;-1.788;2022-12-13T03:33:41;100204.63;;;3.13;100.00
25430;BME280;13360;48.152;-1.788;2022-12-13T03:36:07;100181.13;;;3.12;100.00
25430;BME280;13360;48.152;-1.788;2022-12-13T03:38:33;100185.03;;;3.21;100.00
25430;BME280;13360;48.152;-1.788;2022-12-13T03:41:02;100167.28;;;3.18;100.00
25430;BME280;13360;48.152;-1.788;2022-12-13T03:43:29;100123.19;;;2.99;100.00
25430;BME280;13360;48.152;-1.788;2022-12-13T03:45:54;100137.41;;;3.01;100.00
25430;BME280;13360;48.152;-1.788;2022-12-13T03:48:20;100145.72;;;3.17;100.00
25430;BME280;13360;48.152;-1.788;2022-12-13T03:50:47;100152.53;;;3.19;100.00
25430;BME280;13360;48.152;-1.788;2022-12-13T03:53:13;100123.06;;;3.16;100.00
25430;BME280;13360;48.152;-1.788;2022-12-13T03:55:39;100114.81;;;3.11;100.00
25430;BME280;13360;48.152;-1.788;2022-12-13T03:58:04;100143.00;;;3.22;100.00
25430;BME280;13360;48.152;-1.788;2022-12-13T04:00:29;100126.91;;;3.20;100.00
25430;BME280;13360;48.152;-1.788;2022-12-13T04:02:55;100114.06;;;3.21;100.00
25430;BME280;13360;48.152;-1.788;2022-12-13T04:05:20;100109.16;;;3.23;100.00
25430;BME280;13360;48.152;-1.788;2022-12-13T04:07:46;100127.47;;;3.22;100.00
25430;BME280;13360;48.152;-1.788;2022-12-13T04:10:11;100125.00;;;3.21;100.00
25430;BME280;13360;48.152;-1.788;2022-12-13T04:12:37;100117.88;;;3.20;100.00
25430;BME280;13360;48.152;-1.788;2022-12-13T04:15:20;100135.91;;;3.21;100.00
25430;BME280;13360;48.152;-1.788;2022-12-13T04:17:46;100136.47;;;3.23;100.00
25430;BME280;13360;48.152;-1.788;2022-12-13T04:20:11;100126.63;;;3.22;100.00
25430;BME280;13360;48.152;-1.788;2022-12-13T04:22:37;100121.19;;;3.22;100.00
25430;BME280;13360;48.152;-1.788;2022-12-13T04:25:03;100128.28;;;3.23;100.00
25430;BME280;13360;48.152;-1.788;2022-12-13T04:27:29;100133.19;;;3.21;100.00
25430;BME280;13360;48.152;-1.788;2022-12-13T04:29:54;100149.56;;;3.21;100.00
25430;BME280;13360;48.152;-1.788;2022-12-13T04:32:20;100166.47;;;3.23;100.00
25430;BME280;13360;48.152;-1.788;2022-12-13T04:34:45;100169.19;;;3.18;100.00
25430;BME280;13360;48.152;-1.788;2022-12-13T04:37:10;100193.22;;;3.21;100.00
25430;BME280;13360;48.152;-1.788;2022-12-13T04:39:36;100207.16;;;3.24;100.00
25430;BME280;13360;48.152;-1.788;2022-12-13T04:42:02;100208.53;;;3.27;100.00
25430;BME280;13360;48.152;-1.788;2022-12-13T04:44:28;100219.47;;;3.27;100.00
25430;BME280;13360;48.152;-1.788;2022-12-13T04:46:54;100223.84;;;3.28;100.00
25430;BME280;13360;48.152;-1.788;2022-12-13T04:49:19;100221.09;;;3.28;100.00
25430;BME280;13360;48.152;-1.788;2022-12-13T04:51:44;100203.31;;;3.20;100.00
25430;BME280;13360;48.152;-1.788;2022-12-13T04:54:10;100232.81;;;3.23;100.00
25430;BME280;13360;48.152;-1.788;2022-12-13T04:56:36;100252.22;;;3.27;100.00
25430;BME280;13360;48.152;-1.788;2022-12-13T04:59:02;100269.72;;;3.31;100.00
25430;BME280;13360;48.152;-1.788;2022-12-13T05:01:27;100274.41;;;3.35;100.00
25430;BME280;13360;48.152;-1.788;2022-12-13T05:03:52;100266.50;;;3.34;100.00
25430;BME280;13360;48.152;-1.788;2022-12-13T05:06:18;100266.78;;;3.38;100.00
25430;BME280;13360;48.152;-1.788;2022-12-13T05:08:43;100240.22;;;3.28;100.00
25430;BME280;13360;48.152;-1.788;2022-12-13T05:11:10;100227.91;;;3.25;100.00
25430;BME280;13360;48.152;-1.788;2022-12-13T05:13:36;100245.38;;;3.24;100.00
25430;BME280;13360;48.152;-1.788;2022-12-13T05:16:04;100242.69;;;3.29;100.00
25430;BME280;13360;48.152;-1.788;2022-12-13T05:18:31;100221.06;;;3.23;100.00
25430;BME280;13360;48.152;-1.788;2022-12-13T05:21:01;100218.06;;;3.24;100.00
25430;BME280;13360;48.152;-1.788;2022-12-13T05:23:27;100207.41;;;3.23;100.00
25430;BME280;13360;48.152;-1.788;2022-12-13T05:25:52;100214.00;;;3.27;100.00
25430;BME280;13360;48.152;-1.788;2022-12-13T05:28:17;100192.41;;;3.20;100.00
25430;BME280;13360;48.152;-1.788;2022-12-13T05:30:43;100183.09;;;3.16;100.00
25430;BME280;13360;48.152;-1.788;2022-12-13T05:33:08;100180.63;;;3.15;100.00
25430;BME280;13360;48.152;-1.788;2022-12-13T05:35:35;100160.38;;;3.11;100.00
25430;BME280;13360;48.152;-1.788;2022-12-13T05:38:00;100149.44;;;3.05;100.00
25430;BME280;13360;48.152;-1.788;2022-12-13T05:40:28;100177.38;;;3.18;100.00
25430;BME280;13360;48.152;-1.788;2022-12-13T05:42:53;100181.75;;;3.19;100.00
25430;BME280;13360;48.152;-1.788;2022-12-13T05:45:19;100195.13;;;3.20;100.00
25430;BME280;13360;48.152;-1.788;2022-12-13T05:47:45;100193.19;;;3.16;100.00
25430;BME280;13360;48.152;-1.788;2022-12-13T05:50:11;100194.00;;;3.16;100.00
25430;BME280;13360;48.152;-1.788;2022-12-13T05:52:37;100189.38;;;3.17;100.00
25430;BME280;13360;48.152;-1.788;2022-12-13T05:55:03;100175.16;;;3.15;100.00
25430;BME280;13360;48.152;-1.788;2022-12-13T05:57:28;100166.44;;;3.13;100.00
25430;BME280;13360;48.152;-1.788;2022-12-13T05:59:54;100152.19;;;3.11;100.00
25430;BME280;13360;48.152;-1.788;2022-12-13T06:02:20;100145.34;;;3.08;100.00
25430;BME280;13360;48.152;-1.788;2022-12-13T06:04:46;100143.97;;;3.05;100.00
25430;BME280;13360;48.152;-1.788;2022-12-13T06:07:11;100147.22;;;3.02;100.00
25430;BME280;13360;48.152;-1.788;2022-12-13T06:09:37;100145.84;;;3.00;100.00
25430;BME280;13360;48.152;-1.788;2022-12-13T06:12:03;100147.16;;;2.92;100.00
25430;BME280;13360;48.152;-1.788;2022-12-13T06:14:28;100154.81;;;2.95;100.00
25430;BME280;13360;48.152;-1.788;2022-12-13T06:16:54;100150.72;;;2.93;100.00
25430;BME280;13360;48.152;-1.788;2022-12-13T06:19:20;100154.25;;;2.93;100.00
25430;BME280;13360;48.152;-1.788;2022-12-13T06:21:46;100143.91;;;2.95;100.00
25430;BME280;13360;48.152;-1.788;2022-12-13T06:24:14;100134.56;;;2.91;100.00
25430;BME280;13360;48.152;-1.788;2022-12-13T06:26:39;100115.16;;;2.83;100.00
25430;BME280;13360;48.152;-1.788;2022-12-13T06:29:04;100121.44;;;2.83;100.00
25430;BME280;13360;48.152;-1.788;2022-12-13T06:31:30;100125.81;;;2.84;100.00
25430;BME280;13360;48.152;-1.788;2022-12-13T06:33:55;100114.34;;;2.82;100.00
25430;BME280;13360;48.152;-1.788;2022-12-13T06:36:20;100076.31;;;2.70;100.00
25430;BME280;13360;48.152;-1.788;2022-12-13T06:38:46;100081.44;;;2.62;100.00
25430;BME280;13360;48.152;-1.788;2022-12-13T06:41:15;100110.47;;;2.73;100.00
25430;BME280;13360;48.152;-1.788;2022-12-13T06:43:44;100094.66;;;2.75;100.00
25430;BME280;13360;48.152;-1.788;2022-12-13T06:46:10;100089.59;;;2.57;100.00
25430;BME280;13360;48.152;-1.788;2022-12-13T06:48:35;100102.97;;;2.58;100.00
25430;BME280;13360;48.152;-1.788;2022-12-13T06:51:02;100114.47;;;2.65;100.00
25430;BME280;13360;48.152;-1.788;2022-12-13T06:53:28;100124.91;;;2.73;100.00
25430;BME280;13360;48.152;-1.788;2022-12-13T06:55:53;100120.81;;;2.71;100.00
25430;BME280;13360;48.152;-1.788;2022-12-13T06:58:18;100140.44;;;2.73;100.00
25430;BME280;13360;48.152;-1.788;2022-12-13T07:00:44;100164.50;;;2.81;100.00
25430;BME280;13360;48.152;-1.788;2022-12-13T07:03:10;100159.09;;;2.86;100.00
25430;BME280;13360;48.152;-1.788;2022-12-13T07:05:38;100154.19;;;2.88;100.00
25430;BME280;13360;48.152;-1.788;2022-12-13T07:08:04;100156.41;;;2.91;100.00
25430;BME280;13360;48.152;-1.788;2022-12-13T07:10:30;100150.13;;;2.91;100.00
25430;BME280;13360;48.152;-1.788;2022-12-13T07:12:56;100149.91;;;2.92;100.00
25430;BME280;13360;48.152;-1.788;2022-12-13T07:15:22;100132.69;;;2.92;100.00
25430;BME280;13360;48.152;-1.788;2022-12-13T07:17:50;100102.63;;;2.87;100.00
25430;BME280;13360;48.152;-1.788;2022-12-13T07:20:16;100077.78;;;2.83;100.00
25430;BME280;13360;48.152;-1.788;2022-12-13T07:22:44;100074.47;;;2.76;100.00
25430;BME280;13360;48.152;-1.788;2022-12-13T07:25:10;100091.88;;;2.70;100.00
25430;BME280;13360;48.152;-1.788;2022-12-13T07:27:35;100114.00;;;2.73;100.00
25430;BME280;13360;48.152;-1.788;2022-12-13T07:30:01;100125.50;;;2.81;100.00
25430;BME280;13360;48.152;-1.788;2022-12-13T07:32:26;100123.34;;;2.83;100.00
25430;BME280;13360;48.152;-1.788;2022-12-13T07:34:52;100112.94;;;2.80;100.00
25430;BME280;13360;48.152;-1.788;2022-12-13T07:37:17;100111.84;;;2.75;100.00
25430;BME280;13360;48.152;-1.788;2022-12-13T07:39:44;100096.56;;;2.74;100.00
25430;BME280;13360;48.152;-1.788;2022-12-13T07:42:09;100087.81;;;2.72;100.00
25430;BME280;13360;48.152;-1.788;2022-12-13T07:44:35;100104.13;;;2.67;100.00
25430;BME280;13360;48.152;-1.788;2022-12-13T07:47:00;100127.56;;;2.68;100.00
25430;BME280;13360;48.152;-1.788;2022-12-13T07:49:25;100139.91;;;2.71;100.00
25430;BME280;13360;48.152;-1.788;2022-12-13T07:51:51;100129.22;;;2.69;100.00
25430;BME280;13360;48.152;-1.788;2022-12-13T07:54:16;100138.81;;;2.72;100.00
25430;BME280;13360;48.152;-1.788;2022-12-13T07:56:42;100131.72;;;2.71;100.00
25430;BME280;13360;48.152;-1.788;2022-12-13T07:59:08;100144.03;;;2.79;100.00
25430;BME280;13360;48.152;-1.788;2022-12-13T08:01:34;100154.38;;;2.77;100.00
25430;BME280;13360;48.152;-1.788;2022-12-13T08:04:00;100159.31;;;2.80;100.00
25430;BME280;13360;48.152;-1.788;2022-12-13T08:06:25;100176.25;;;2.82;100.00
25430;BME280;13360;48.152;-1.788;2022-12-13T08:08:57;100181.69;;;2.82;100.00
25430;BME280;13360;48.152;-1.788;2022-12-13T08:11:22;100194.00;;;2.84;100.00
25430;BME280;13360;48.152;-1.788;2022-12-13T08:13:48;100188.28;;;2.86;100.00
25430;BME280;13360;48.152;-1.788;2022-12-13T08:16:13;100183.63;;;2.86;100.00
25430;BME280;13360;48.152;-1.788;2022-12-13T08:18:42;100192.38;;;2.88;100.00
25430;BME280;13360;48.152;-1.788;2022-12-13T08:21:08;100192.13;;;2.90;100.00
25430;BME280;13360;48.152;-1.788;2022-12-13T08:23:34;100197.84;;;2.88;100.00
25430;BME280;13360;48.152;-1.788;2022-12-13T08:26:02;100206.81;;;2.84;100.00
25430;BME280;13360;48.152;-1.788;2022-12-13T08:28:29;100234.09;;;2.84;100.00
25430;BME280;13360;48.152;-1.788;2022-12-13T08:31:04;100246.34;;;2.81;100.00
25430;BME280;13360;48.152;-1.788;2022-12-13T08:33:32;100268.19;;;2.86;100.00
25430;BME280;13360;48.152;-1.788;2022-12-13T08:36:06;100287.13;;;2.93;100.00
25430;BME280;13360;48.152;-1.788;2022-12-13T08:38:31;100284.06;;;2.89;100.00
25430;BME280;13360;48.152;-1.788;2022-12-13T08:40:58;100297.75;;;2.94;100.00
25430;BME280;13360;48.152;-1.788;2022-12-13T08:43:23;100308.78;;;3.04;100.00
25430;BME280;13360;48.152;-1.788;2022-12-13T08:45:49;100305.53;;;3.08;100.00
25430;BME280;13360;48.152;-1.788;2022-12-13T08:48:14;100306.09;;;3.10;100.00
25430;BME280;13360;48.152;-1.788;2022-12-13T08:50:40;100294.59;;;3.08;100.00
25430;BME280;13360;48.152;-1.788;2022-12-13T08:53:05;100261.31;;;3.05;100.00
25430;BME280;13360;48.152;-1.788;2022-12-13T08:55:30;100247.13;;;3.09;100.00
25430;BME280;13360;48.152;-1.788;2022-12-13T08:57:56;100259.25;;;3.18;100.00
25430;BME280;13360;48.152;-1.788;2022-12-13T09:00:21;100200.94;;;2.97;100.00
25430;BME280;13360;48.152;-1.788;2022-12-13T09:02:46;100209.97;;;3.02;100.00
25430;BME280;13360;48.152;-1.788;2022-12-13T09:05:12;100208.91;;;3.03;100.00
25430;BME280;13360;48.152;-1.788;2022-12-13T09:07:38;100192.53;;;3.03;100.00
25430;BME280;13360;48.152;-1.788;2022-12-13T09:10:05;100197.19;;;3.08;100.00
25430;BME280;13360;48.152;-1.788;2022-12-13T09:12:32;100207.38;;;3.18;100.00
25430;BME280;13360;48.152;-1.788;2022-12-13T09:14:57;100199.72;;;3.15;100.00
25430;BME280;13360;48.152;-1.788;2022-12-13T09:17:23;100194.59;;;3.23;100.00
25430;BME280;13360;48.152;-1.788;2022-12-13T09:19:48;100135.00;;;3.10;100.00
25430;BME280;13360;48.152;-1.788;2022-12-13T09:22:13;100166.44;;;3.13;100.00
25430;BME280;13360;48.152;-1.788;2022-12-13T09:24:40;100200.88;;;3.24;100.00
25430;BME280;13360;48.152;-1.788;2022-12-13T09:27:06;100164.00;;;3.16;100.00
25430;BME280;13360;48.152;-1.788;2022-12-13T09:29:35;100156.28;;;3.08;100.00
25430;BME280;13360;48.152;-1.788;2022-12-13T09:32:00;100149.44;;;3.05;100.00
25430;BME280;13360;48.152;-1.788;2022-12-13T09:34:25;100193.00;;;3.27;100.00
25430;BME280;13360;48.152;-1.788;2022-12-13T09:36:51;100218.50;;;3.43;100.00
25430;BME280;13360;48.152;-1.788;2022-12-13T09:39:17;100210.88;;;3.50;100.00
25430;BME280;13360;48.152;-1.788;2022-12-13T09:41:48;100198.13;;;3.56;100.00
25430;BME280;13360;48.152;-1.788;2022-12-13T09:44:24;100204.72;;;3.65;100.00
25430;BME280;13360;48.152;-1.788;2022-12-13T09:46:51;100191.88;;;3.65;100.00
25430;BME280;13360;48.152;-1.788;2022-12-13T09:49:39;100165.66;;;3.64;100.00
25430;BME280;13360;48.152;-1.788;2022-12-13T09:52:06;100136.91;;;3.52;100.00
25430;BME280;13360;48.152;-1.788;2022-12-13T09:54:33;100153.03;;;3.53;100.00
25430;BME280;13360;48.152;-1.788;2022-12-13T09:56:58;100135.97;;;3.31;100.00
25430;BME280;13360;48.152;-1.788;2022-12-13T09:59:27;100145.50;;;3.28;100.00
25430;BME280;13360;48.152;-1.788;2022-12-13T10:01:54;100204.97;;;3.63;100.00
25430;BME280;13360;48.152;-1.788;2022-12-13T10:04:19;100123.75;;;3.44;100.00
25430;BME280;13360;48.152;-1.788;2022-12-13T10:06:45;100146.53;;;3.64;100.00
25430;BME280;13360;48.152;-1.788;2022-12-13T10:09:12;100142.25;;;3.79;100.00
25430;BME280;13360;48.152;-1.788;2022-12-13T10:11:52;100095.19;;;3.66;100.00
25430;BME280;13360;48.152;-1.788;2022-12-13T10:14:25;100119.13;;;3.44;100.00
25430;BME280;13360;48.152;-1.788;2022-12-13T10:16:55;100130.03;;;3.44;100.00
25430;BME280;13360;48.152;-1.788;2022-12-13T10:19:35;100090.72;;;3.40;100.00
25430;BME280;13360;48.152;-1.788;2022-12-13T10:22:05;100116.53;;;3.22;100.00
25430;BME280;13360;48.152;-1.788;2022-12-13T10:24:56;100152.44;;;3.46;100.00
25430;BME280;13360;48.152;-1.788;2022-12-13T10:30:27;100112.59;;;3.50;100.00
25430;BME280;13360;48.152;-1.788;2022-12-13T10:33:04;100101.13;;;3.53;100.00
25430;BME280;13360;48.152;-1.788;2022-12-13T10:35:37;100087.53;;;3.63;100.00
25430;BME280;13360;48.152;-1.788;2022-12-13T10:40:34;100092.72;;;3.55;100.00
25430;BME280;13360;48.152;-1.788;2022-12-13T10:43:13;100079.63;;;3.62;100.00
25430;BME280;13360;48.152;-1.788;2022-12-13T10:48:39;100071.09;;;3.53;100.00
25430;BME280;13360;48.152;-1.788;2022-12-13T10:51:12;100137.78;;;3.62;100.00
25430;BME280;13360;48.152;-1.788;2022-12-13T10:53:44;100098.34;;;3.38;100.00
25430;BME280;13360;48.152;-1.788;2022-12-13T10:56:10;100105.78;;;3.53;100.00
25430;BME280;13360;48.152;-1.788;2022-12-13T10:58:43;100095.66;;;3.43;100.00
25430;BME280;13360;48.152;-1.788;2022-12-13T11:04:18;100082.34;;;3.57;100.00
25430;BME280;13360;48.152;-1.788;2022-12-13T11:06:46;100077.97;;;3.61;100.00
25430;BME280;13360;48.152;-1.788;2022-12-13T11:11:40;100101.84;;;3.91;100.00
25430;BME280;13360;48.152;-1.788;2022-12-13T11:14:16;100045.84;;;3.83;100.00
25430;BME280;13360;48.152;-1.788;2022-12-13T11:16:44;100031.91;;;3.90;100.00
25430;BME280;13360;48.152;-1.788;2022-12-13T11:19:50;100041.78;;;4.06;100.00
25430;BME280;13360;48.152;-1.788;2022-12-13T11:22:09;100034.13;;;4.13;100.00
25430;BME280;13360;48.152;-1.788;2022-12-13T11:24:48;100030.00;;;3.90;100.00
25430;BME280;13360;48.152;-1.788;2022-12-13T11:30:23;100046.97;;;3.97;100.00
25430;BME280;13360;48.152;-1.788;2022-12-13T11:35:59;100022.94;;;4.00;100.00
25430;BME280;13360;48.152;-1.788;2022-12-13T11:38:43;100043.97;;;4.14;100.00
25430;BME280;13360;48.152;-1.788;2022-12-13T11:41:14;100012.25;;;3.93;100.00
25430;BME280;13360;48.152;-1.788;2022-12-13T11:43:53;100040.66;;;3.92;100.00
25430;BME280;13360;48.152;-1.788;2022-12-13T11:46:42;100035.75;;;3.94;100.00
25430;BME280;13360;48.152;-1.788;2022-12-13T11:49:15;100076.25;;;4.22;100.00
25430;BME280;13360;48.152;-1.788;2022-12-13T11:51:47;100031.41;;;4.08;100.00
25430;BME280;13360;48.152;-1.788;2022-12-13T11:54:24;100084.50;;;4.38;100.00
25430;BME280;13360;48.152;-1.788;2022-12-13T11:56:54;100056.88;;;4.44;100.00
25430;BME280;13360;48.152;-1.788;2022-12-13T12:02:00;100004.63;;;4.15;100.00
25430;BME280;13360;48.152;-1.788;2022-12-13T12:04:43;99976.19;;;4.06;100.00
25430;BME280;13360;48.152;-1.788;2022-12-13T12:07:12;99993.69;;;4.05;100.00
25430;BME280;13360;48.152;-1.788;2022-12-13T12:09:48;99998.06;;;4.01;100.00
25430;BME280;13360;48.152;-1.788;2022-12-13T12:12:35;100041.28;;;4.29;100.00
25430;BME280;13360;48.152;-1.788;2022-12-13T12:15:13;99991.53;;;4.17;100.00
25430;BME280;13360;48.152;-1.788;2022-12-13T12:17:40;100011.19;;;4.29;100.00
25430;BME280;13360;48.152;-1.788;2022-12-13T12:20:19;100034.72;;;4.46;100.00
25430;BME280;13360;48.152;-1.788;2022-12-13T12:22:58;100022.69;;;4.42;100.00
25430;BME280;13360;48.152;-1.788;2022-12-13T12:25:26;100005.75;;;4.40;100.00
25430;BME280;13360;48.152;-1.788;2022-12-13T12:41:37;99983.03;;;4.14;100.00
25430;BME280;13360;48.152;-1.788;2022-12-13T12:47:22;100003.81;;;4.00;100.00
25430;BME280;13360;48.152;-1.788;2022-12-13T12:55:31;100064.78;;;4.56;100.00
25430;BME280;13360;48.152;-1.788;2022-12-13T13:00:44;100039.09;;;4.57;100.00
25430;BME280;13360;48.152;-1.788;2022-12-13T13:03:30;100054.94;;;4.70;100.00
25430;BME280;13360;48.152;-1.788;2022-12-13T13:06:11;100036.09;;;4.64;100.00
25430;BME280;13360;48.152;-1.788;2022-12-13T13:11:22;99990.13;;;4.50;100.00
25430;BME280;13360;48.152;-1.788;2022-12-13T13:26:46;100001.34;;;4.54;100.00
25430;BME280;13360;48.152;-1.788;2022-12-13T13:37:04;99983.03;;;4.29;100.00
25430;BME280;13360;48.152;-1.788;2022-12-13T13:42:25;100033.63;;;4.21;100.00
25430;BME280;13360;48.152;-1.788;2022-12-13T13:44:55;100038.28;;;4.41;100.00
25430;BME280;13360;48.152;-1.788;2022-12-13T13:52:24;100022.41;;;4.53;100.00
25430;BME280;13360;48.152;-1.788;2022-12-13T13:57:59;100030.31;;;4.85;100.00
25430;BME280;13360;48.152;-1.788;2022-12-13T14:00:40;100022.63;;;4.98;100.00
25430;BME280;13360;48.152;-1.788;2022-12-13T14:14:58;100024.56;;;4.87;100.00
25430;BME280;13360;48.152;-1.788;2022-12-13T14:23:53;100027.06;;;4.68;100.00
25430;BME280;13360;48.152;-1.788;2022-12-13T14:28:59;100019.66;;;4.69;100.00
25430;BME280;13360;48.152;-1.788;2022-12-13T14:33:54;99992.59;;;4.62;100.00
25430;BME280;13360;48.152;-1.788;2022-12-13T14:36:30;100021.56;;;4.73;100.00
25430;BME280;13360;48.152;-1.788;2022-12-13T14:39:03;100030.59;;;4.79;100.00
25430;BME280;13360;48.152;-1.788;2022-12-13T14:41:30;100016.38;;;4.72;100.00
25430;BME280;13360;48.152;-1.788;2022-12-13T14:44:12;100045.38;;;4.88;100.00
25430;BME280;13360;48.152;-1.788;2022-12-13T14:46:48;99986.03;;;4.58;100.00
25430;BME280;13360;48.152;-1.788;2022-12-13T14:49:14;100017.19;;;4.57;100.00
25430;BME280;13360;48.152;-1.788;2022-12-13T14:51:40;100013.66;;;4.46;100.00
25430;BME280;13360;48.152;-1.788;2022-12-13T14:54:06;100062.09;;;4.61;100.00